Time;durP1;ratioP1;P1;durP2;ratioP2;P2;SDS_P1;SDS_P2;PMS_P1;PMS_P2;Temp;Humidity;BMP_temperature;BMP_pressure;BME280_temperature;BME280_humidity;BME280_pressure;Samples;Min_cycle;Max_cycle;Signal;HPM_P1;HPM_P2
2022/09/30 00:02:13;;;;;;;14.23;5.70;;;7.00;99.90;;;;;;5080796;28;20073;-59
2022/09/30 00:04:39;;;;;;;14.05;6.07;;;6.90;99.90;;;;;;5079733;28;20394;-61
2022/09/30 00:07:04;;;;;;;11.05;6.10;;;6.90;99.90;;;;;;5082033;28;20037;-59
2022/09/30 00:09:30;;;;;;;10.35;6.30;;;6.90;99.90;;;;;;5087788;28;20074;-59
2022/09/30 00:11:55;;;;;;;14.48;6.95;;;6.90;99.90;;;;;;5077243;28;20035;-63
2022/09/30 00:14:22;;;;;;;12.77;6.30;;;6.90;99.90;;;;;;5085081;28;20032;-59
2022/09/30 00:16:49;;;;;;;13.70;6.22;;;6.90;99.90;;;;;;5075062;28;20029;-59
2022/09/30 00:19:14;;;;;;;10.63;6.15;;;6.90;99.90;;;;;;5087233;28;20107;-59
2022/09/30 00:21:41;;;;;;;22.15;6.38;;;6.80;99.90;;;;;;5077404;28;20452;-60
2022/09/30 00:24:07;;;;;;;16.83;6.95;;;6.70;99.90;;;;;;5085240;28;20097;-56
2022/09/30 00:26:33;;;;;;;9.55;6.00;;;6.60;99.90;;;;;;5088959;28;20028;-60
2022/09/30 00:29:00;;;;;;;15.30;6.38;;;6.60;99.90;;;;;;5086883;28;20473;-60
2022/09/30 00:31:29;;;;;;;10.40;5.88;;;6.60;99.90;;;;;;5085185;28;20431;-59
2022/09/30 00:34:07;;;;;;;13.07;6.32;;;6.60;99.90;;;;;;5086418;28;20030;-58
2022/09/30 00:36:54;;;;;;;11.77;7.15;;;6.50;99.90;;;;;;5083000;28;20081;-59
2022/09/30 00:39:23;;;;;;;12.45;5.95;;;6.50;99.90;;;;;;5083733;28;20047;-59
2022/09/30 00:41:52;;;;;;;12.88;5.95;;;6.50;99.90;;;;;;5082552;28;20032;-56
2022/09/30 00:44:46;;;;;;;14.90;6.47;;;6.50;99.90;;;;;;5080725;28;20036;-58
2022/09/30 00:47:32;;;;;;;13.45;6.40;;;6.50;99.90;;;;;;5082759;28;20035;-58
2022/09/30 00:50:01;;;;;;;9.93;5.95;;;6.50;99.90;;;;;;5079339;28;20032;-60
2022/09/30 00:52:28;;;;;;;11.77;6.38;;;6.60;99.90;;;;;;5079895;28;20016;-59
2022/09/30 00:54:57;;;;;;;13.23;6.18;;;6.50;99.90;;;;;;5082270;28;20051;-60
2022/09/30 00:57:23;;;;;;;15.40;6.80;;;6.40;99.90;;;;;;5084651;28;20441;-60
2022/09/30 00:59:50;;;;;;;16.70;7.30;;;6.40;99.90;;;;;;5080578;28;20029;-60
2022/09/30 01:02:16;;;;;;;10.88;6.30;;;6.40;99.90;;;;;;5084860;28;20028;-61
2022/09/30 01:04:43;;;;;;;12.13;6.63;;;6.30;99.90;;;;;;5083088;28;20032;-59
2022/09/30 01:07:09;;;;;;;12.45;6.30;;;6.30;99.90;;;;;;5081506;28;20520;-62
2022/09/30 01:09:38;;;;;;;12.70;6.68;;;6.30;99.90;;;;;;5080043;28;20024;-60
2022/09/30 01:12:11;;;;;;;9.30;5.57;;;6.30;99.90;;;;;;5082793;28;20111;-57
2022/09/30 01:14:37;;;;;;;17.40;6.57;;;6.40;99.90;;;;;;5087017;28;20028;-61
2022/09/30 01:17:32;;;;;;;10.77;6.18;;;6.30;99.90;;;;;;5088810;28;20065;-59
2022/09/30 01:20:27;;;;;;;8.82;5.93;;;6.20;99.90;;;;;;5058704;28;20044;-59
2022/09/30 01:23:08;;;;;;;;;;;6.20;99.90;;;;;;5088085;28;20051;-61
2022/09/30 01:25:55;;;;;;;9.65;5.45;;;6.10;99.90;;;;;;5090353;28;20696;-59
2022/09/30 01:28:56;;;;;;;10.10;5.78;;;6.10;99.90;;;;;;5091834;28;20039;-61
2022/09/30 01:31:41;;;;;;;9.32;5.95;;;6.20;99.90;;;;;;5087848;28;20112;-61
2022/09/30 01:34:36;;;;;;;11.98;5.68;;;6.20;99.90;;;;;;5086127;28;20024;-58
2022/09/30 01:37:32;;;;;;;10.00;7.47;;;6.30;99.90;;;;;;5082589;28;20031;-59
2022/09/30 01:40:12;;;;;;;12.07;6.03;;;6.20;99.90;;;;;;5087800;28;20043;-60
2022/09/30 01:42:48;;;;;;;13.18;5.68;;;6.20;99.90;;;;;;5086927;28;20038;-61
2022/09/30 01:45:43;;;;;;;10.15;5.60;;;6.20;99.90;;;;;;5087031;28;20575;-60
2022/09/30 01:48:20;;;;;;;10.27;6.70;;;6.20;99.90;;;;;;5090250;28;20059;-59
2022/09/30 01:50:57;;;;;;;11.15;5.72;;;6.30;99.90;;;;;;5086206;28;20024;-58
2022/09/30 01:53:50;;;;;;;11.55;5.80;;;6.30;99.90;;;;;;5084501;28;20016;-58
2022/09/30 01:56:40;;;;;;;11.07;6.60;;;6.10;99.90;;;;;;5080801;28;20035;-58
2022/09/30 01:59:19;;;;;;;7.60;5.03;;;6.00;99.90;;;;;;5087694;28;20028;-59
2022/09/30 02:01:54;;;;;;;8.60;6.22;;;6.00;99.90;;;;;;5084655;28;20024;-59
2022/09/30 02:04:30;;;;;;;11.30;6.05;;;6.00;99.90;;;;;;5085227;28;20040;-58
2022/09/30 02:07:00;;;;;;;10.48;5.82;;;5.90;99.90;;;;;;5103071;22;20040;-59
2022/09/30 02:09:32;;;;;;;15.13;5.80;;;5.90;99.90;;;;;;5079244;28;20065;-57
2022/09/30 02:12:01;;;;;;;11.35;5.82;;;5.90;99.90;;;;;;5087569;28;20044;-58
2022/09/30 02:14:30;;;;;;;11.80;5.97;;;5.80;99.90;;;;;;5089304;28;20035;-58
2022/09/30 02:17:14;;;;;;;15.02;6.40;;;5.80;99.90;;;;;;5070206;28;20047;-60
2022/09/30 02:19:51;;;;;;;9.57;6.07;;;5.80;99.90;;;;;;5070082;28;20028;-57
2022/09/30 02:22:25;;;;;;;16.70;6.10;;;5.80;99.90;;;;;;5065333;28;20017;-57
2022/09/30 02:24:55;;;;;;;8.88;6.20;;;5.80;99.90;;;;;;5065848;28;20020;-59
2022/09/30 02:27:41;;;;;;;12.63;5.55;;;5.90;99.90;;;;;;5059713;28;20018;-58
2022/09/30 02:30:11;;;;;;;12.82;6.22;;;5.90;99.90;;;;;;5063873;28;20029;-58
2022/09/30 02:32:59;;;;;;;8.82;5.13;;;5.90;99.90;;;;;;5062181;28;20020;-58
2022/09/30 02:35:34;;;;;;;7.05;4.82;;;5.90;99.90;;;;;;5059837;28;20067;-62
2022/09/30 02:38:04;;;;;;;9.38;5.57;;;5.90;99.90;;;;;;5058773;28;20108;-58
2022/09/30 02:40:40;;;;;;;10.75;6.00;;;5.90;99.90;;;;;;5061142;28;20033;-58
2022/09/30 02:43:08;;;;;;;11.10;6.25;;;5.90;99.90;;;;;;5061551;28;20036;-58
2022/09/30 02:45:54;;;;;;;13.95;7.93;;;6.00;99.90;;;;;;5059413;28;20252;-56
2022/09/30 02:48:34;;;;;;;12.40;6.10;;;6.00;99.90;;;;;;5061073;28;20078;-57
2022/09/30 02:51:05;;;;;;;12.52;6.50;;;6.10;99.90;;;;;;5063976;28;20039;-59
2022/09/30 02:53:45;;;;;;;9.95;6.05;;;6.10;99.90;;;;;;5059885;28;20021;-59
2022/09/30 02:56:20;;;;;;;9.07;5.00;;;6.10;99.90;;;;;;5060391;28;20028;-58
2022/09/30 02:58:48;;;;;;;9.07;5.70;;;6.10;99.90;;;;;;5063121;28;20028;-57
2022/09/30 03:01:15;;;;;;;13.40;5.40;;;6.10;99.90;;;;;;5060814;28;20089;-59
2022/09/30 03:03:41;;;;;;;10.57;5.47;;;6.10;99.90;;;;;;5060564;28;20033;-59
2022/09/30 03:06:07;;;;;;;7.97;4.53;;;6.10;99.90;;;;;;5062360;28;20397;-59
2022/09/30 03:08:33;;;;;;;9.05;5.97;;;6.10;99.90;;;;;;5060791;28;20046;-56
2022/09/30 03:10:59;;;;;;;10.63;5.60;;;6.10;99.90;;;;;;5063808;28;20029;-59
2022/09/30 03:14:07;;;;;;;10.82;6.13;;;6.00;99.90;;;;;;5066911;28;20065;-58
2022/09/30 03:16:41;;;;;;;7.03;4.88;;;6.10;99.90;;;;;;5066816;28;20024;-60
2022/09/30 03:19:23;;;;;;;;;;;5.90;99.90;;;;;;5067705;28;20086;-59
2022/09/30 03:21:57;;;;;;;11.88;5.80;;;5.90;99.90;;;;;;5063966;28;19909;-58
2022/09/30 03:24:35;;;;;;;;;;;5.80;99.90;;;;;;5068394;28;20036;-60
2022/09/30 03:27:21;;;;;;;11.30;5.55;;;5.80;99.90;;;;;;5064400;28;19943;-56
2022/09/30 03:30:10;;;;;;;10.25;5.65;;;5.70;99.90;;;;;;5067983;28;20031;-60
2022/09/30 03:32:53;;;;;;;9.82;4.95;;;5.70;99.90;;;;;;5064498;28;20021;-59
2022/09/30 03:35:55;;;;;;;10.32;5.78;;;5.60;99.90;;;;;;5061065;28;20033;-60
2022/09/30 03:38:51;;;;;;;13.50;6.57;;;5.60;99.90;;;;;;5058856;28;20401;-58
2022/09/30 03:41:37;;;;;;;12.45;5.95;;;5.50;99.90;;;;;;5057435;28;20170;-56
2022/09/30 03:44:26;;;;;;;12.07;6.90;;;5.50;99.90;;;;;;5037248;28;20514;-60
2022/09/30 03:46:58;;;;;;;8.82;5.85;;;5.50;99.90;;;;;;5059918;28;20045;-59
2022/09/30 03:49:29;;;;;;;9.32;6.03;;;5.40;99.90;;;;;;5061621;28;20060;-57
2022/09/30 03:51:56;;;;;;;12.68;6.13;;;5.50;99.90;;;;;;5058423;28;20068;-58
2022/09/30 03:54:22;;;;;;;16.10;6.40;;;5.60;99.90;;;;;;5059258;28;20029;-60
2022/09/30 03:56:49;;;;;;;8.73;5.85;;;5.70;99.90;;;;;;5060421;28;20059;-60
2022/09/30 03:59:27;;;;;;;10.23;5.78;;;5.50;99.90;;;;;;5060189;28;20021;-59
2022/09/30 04:01:53;;;;;;;10.80;6.03;;;5.50;99.90;;;;;;5058821;28;20532;-59
2022/09/30 04:04:18;;;;;;;9.88;5.57;;;5.60;99.90;;;;;;5058464;28;20029;-60
2022/09/30 04:06:44;;;;;;;14.18;6.57;;;5.60;99.90;;;;;;5060509;28;20048;-58
2022/09/30 04:09:10;;;;;;;13.20;6.55;;;5.60;99.90;;;;;;5060800;28;20430;-58
2022/09/30 04:11:35;;;;;;;12.45;5.28;;;5.60;99.90;;;;;;5056661;28;20028;-57
2022/09/30 04:14:01;;;;;;;9.73;5.80;;;5.50;99.90;;;;;;5062745;28;20096;-57
2022/09/30 04:16:30;;;;;;;10.73;5.72;;;5.40;99.90;;;;;;5060613;28;20027;-61
2022/09/30 04:18:56;;;;;;;10.68;6.43;;;5.40;99.90;;;;;;5060786;28;20089;-59
2022/09/30 04:21:22;;;;;;;9.10;6.10;;;5.40;99.90;;;;;;5058362;28;20032;-59
2022/09/30 04:23:49;;;;;;;10.23;5.57;;;5.40;99.90;;;;;;5058636;28;20029;-58
2022/09/30 04:26:16;;;;;;;9.38;5.43;;;5.40;99.90;;;;;;5059810;28;20033;-61
2022/09/30 04:28:42;;;;;;;10.90;5.97;;;5.40;99.90;;;;;;5059931;28;20059;-59
2022/09/30 04:31:10;;;;;;;10.90;6.05;;;5.30;99.90;;;;;;5056136;28;20032;-57
2022/09/30 04:33:37;;;;;;;13.80;7.07;;;5.40;99.90;;;;;;5055857;28;20020;-58
2022/09/30 04:36:03;;;;;;;11.77;6.20;;;5.30;99.90;;;;;;5058871;28;20043;-60
2022/09/30 04:38:28;;;;;;;11.43;6.10;;;5.30;99.90;;;;;;5061017;28;20028;-57
2022/09/30 04:40:55;;;;;;;10.77;7.10;;;5.40;99.90;;;;;;5060117;28;20603;-58
2022/09/30 04:43:22;;;;;;;16.35;6.22;;;5.40;99.90;;;;;;5066686;28;20035;-58
2022/09/30 04:45:48;;;;;;;14.00;6.30;;;5.50;99.90;;;;;;5063081;28;20036;-58
2022/09/30 04:48:15;;;;;;;10.52;6.47;;;5.50;99.90;;;;;;5060301;28;20411;-58
2022/09/30 04:50:41;;;;;;;10.90;5.50;;;5.40;99.90;;;;;;5063240;28;20048;-59
2022/09/30 04:53:08;;;;;;;9.55;5.57;;;5.40;99.90;;;;;;5056460;28;20036;-58
2022/09/30 04:55:33;;;;;;;17.25;6.32;;;5.40;99.90;;;;;;5061982;28;20112;-62
2022/09/30 04:57:59;;;;;;;10.80;6.30;;;5.40;99.90;;;;;;5061265;28;20112;-58
2022/09/30 05:00:24;;;;;;;10.85;6.13;;;5.40;99.90;;;;;;5057987;28;20032;-59
2022/09/30 05:02:50;;;;;;;12.00;7.57;;;5.40;99.90;;;;;;5062424;28;20032;-61
2022/09/30 05:05:16;;;;;;;11.35;7.10;;;5.40;99.90;;;;;;5065585;28;20116;-60
2022/09/30 05:07:43;;;;;;;13.80;5.80;;;5.30;99.90;;;;;;5061621;28;20035;-60
2022/09/30 05:10:10;;;;;;;9.80;5.72;;;5.30;99.90;;;;;;5065313;28;20036;-61
2022/09/30 05:12:36;;;;;;;13.07;6.95;;;5.40;99.90;;;;;;5057550;28;20067;-60
2022/09/30 05:15:03;;;;;;;10.80;6.07;;;5.30;99.90;;;;;;5060062;28;20437;-60
2022/09/30 05:17:30;;;;;;;12.77;6.28;;;5.30;99.90;;;;;;5066460;28;20525;-61
2022/09/30 05:19:55;;;;;;;18.42;7.93;;;5.40;99.90;;;;;;5068562;28;20095;-60
2022/09/30 05:22:23;;;;;;;17.80;7.07;;;5.40;99.90;;;;;;5067552;28;20035;-62
2022/09/30 05:24:49;;;;;;;18.50;8.15;;;5.40;99.90;;;;;;5067456;28;20398;-60
2022/09/30 05:27:15;;;;;;;15.65;9.00;;;5.40;99.90;;;;;;5065736;28;20020;-61
2022/09/30 05:29:41;;;;;;;15.52;8.50;;;5.40;99.90;;;;;;5068421;28;20490;-58
2022/09/30 05:32:06;;;;;;;13.32;7.97;;;5.30;99.90;;;;;;5068765;28;20502;-59
2022/09/30 05:34:32;;;;;;;15.82;7.18;;;5.30;99.90;;;;;;5068048;28;20120;-60
2022/09/30 05:36:57;;;;;;;14.57;8.07;;;5.30;99.90;;;;;;5065983;28;20677;-60
2022/09/30 05:39:23;;;;;;;12.98;7.22;;;5.20;99.90;;;;;;5066626;28;20025;-59
2022/09/30 05:41:49;;;;;;;14.77;7.75;;;5.10;99.90;;;;;;5066555;28;20039;-59
2022/09/30 05:44:14;;;;;;;16.58;7.30;;;5.10;99.90;;;;;;5066843;28;20043;-59
2022/09/30 05:46:41;;;;;;;17.67;8.32;;;5.10;99.90;;;;;;5066341;28;20029;-59
2022/09/30 05:49:07;;;;;;;15.82;8.55;;;5.10;99.90;;;;;;5066635;28;20052;-61
2022/09/30 05:51:32;;;;;;;16.52;7.97;;;5.10;99.90;;;;;;5059108;28;20033;-59
2022/09/30 05:53:58;;;;;;;15.38;8.65;;;5.10;99.90;;;;;;5060151;28;20545;-62
2022/09/30 05:56:23;;;;;;;17.25;6.88;;;5.20;99.90;;;;;;5058451;28;20051;-61
2022/09/30 05:58:49;;;;;;;21.23;8.85;;;5.20;99.90;;;;;;5058308;28;20128;-63
2022/09/30 06:01:15;;;;;;;17.88;9.20;;;5.30;99.90;;;;;;5058327;28;20629;-60
2022/09/30 06:03:42;;;;;;;20.92;8.70;;;5.30;99.90;;;;;;5062502;28;20037;-60
2022/09/30 06:06:09;;;;;;;14.98;7.85;;;5.40;99.90;;;;;;5067582;28;20028;-62
2022/09/30 06:08:34;;;;;;;22.08;8.85;;;5.50;99.90;;;;;;5070659;28;20025;-59
2022/09/30 06:11:00;;;;;;;19.77;9.75;;;5.60;99.90;;;;;;5070555;28;20039;-57
2022/09/30 06:13:27;;;;;;;22.63;11.02;;;5.70;99.90;;;;;;5071454;28;20031;-60
2022/09/30 06:15:57;;;;;;;26.15;11.40;;;5.80;99.90;;;;;;5067763;28;20031;-61
2022/09/30 06:18:24;;;;;;;34.35;12.30;;;5.90;99.90;;;;;;5069891;28;20401;-62
2022/09/30 06:20:50;;;;;;;26.90;11.48;;;6.10;99.90;;;;;;5063794;28;20024;-56
2022/09/30 06:23:16;;;;;;;25.23;12.20;;;6.20;99.90;;;;;;5067475;28;20040;-59
2022/09/30 06:25:42;;;;;;;29.20;12.05;;;6.30;99.90;;;;;;5070355;28;20722;-58
2022/09/30 06:28:08;;;;;;;26.63;13.50;;;6.40;99.90;;;;;;5070064;28;20028;-58
2022/09/30 06:30:33;;;;;;;29.15;11.70;;;6.50;99.90;;;;;;5070453;28;20490;-60
2022/09/30 06:33:00;;;;;;;35.70;14.65;;;6.50;99.90;;;;;;5068226;28;20036;-60
2022/09/30 06:35:27;;;;;;;34.90;13.25;;;6.50;99.90;;;;;;5064162;28;20148;-59
2022/09/30 06:37:53;;;;;;;34.45;14.70;;;6.60;99.90;;;;;;5069059;28;20032;-58
2022/09/30 06:40:21;;;;;;;40.55;14.18;;;6.60;99.90;;;;;;5066841;28;20063;-60
2022/09/30 06:42:48;;;;;;;47.72;15.48;;;6.70;99.90;;;;;;5068871;28;20509;-59
2022/09/30 06:45:14;;;;;;;35.15;14.63;;;6.80;99.90;;;;;;5070950;28;20055;-59
2022/09/30 06:47:40;;;;;;;48.10;16.00;;;6.80;99.90;;;;;;5068663;28;20032;-59
2022/09/30 06:50:06;;;;;;;38.10;15.52;;;6.90;99.90;;;;;;5069700;28;20075;-58
2022/09/30 06:52:32;;;;;;;31.27;14.13;;;7.00;99.90;;;;;;5069131;28;20028;-58
2022/09/30 06:54:57;;;;;;;36.35;15.57;;;7.00;99.90;;;;;;5069143;28;20044;-59
2022/09/30 06:57:26;;;;;;;40.67;16.33;;;7.10;99.90;;;;;;5068232;28;20400;-61
2022/09/30 06:59:53;;;;;;;46.00;16.40;;;7.10;99.90;;;;;;5063793;28;20022;-59
2022/09/30 07:02:19;;;;;;;34.28;16.00;;;7.10;99.90;;;;;;5067752;28;20095;-57
2022/09/30 07:04:44;;;;;;;37.60;16.65;;;7.20;99.90;;;;;;5071540;28;20542;-59
2022/09/30 07:07:11;;;;;;;35.38;16.00;;;7.20;99.90;;;;;;5069612;28;20541;-58
2022/09/30 07:09:36;;;;;;;36.13;15.55;;;7.30;99.90;;;;;;5066156;28;20105;-59
2022/09/30 07:12:02;;;;;;;42.03;18.30;;;7.30;99.90;;;;;;5071194;28;20116;-60
2022/09/30 07:14:29;;;;;;;42.45;17.15;;;7.40;99.90;;;;;;5069943;28;20025;-59
2022/09/30 07:16:54;;;;;;;44.55;17.17;;;7.50;99.90;;;;;;5070620;28;20033;-60
2022/09/30 07:19:22;;;;;;;45.10;18.17;;;7.50;99.90;;;;;;5070676;28;20020;-59
2022/09/30 07:21:48;;;;;;;44.10;18.77;;;7.40;99.90;;;;;;5070305;28;20029;-59
2022/09/30 07:24:15;;;;;;;38.40;17.95;;;7.40;99.90;;;;;;5069642;28;20025;-58
2022/09/30 07:26:40;;;;;;;49.55;18.70;;;7.50;99.90;;;;;;5069396;28;20043;-62
2022/09/30 07:29:06;;;;;;;45.67;18.50;;;7.60;99.90;;;;;;5070019;28;20029;-59
2022/09/30 07:31:33;;;;;;;50.20;20.08;;;7.70;99.90;;;;;;5067498;28;20167;-60
2022/09/30 07:33:59;;;;;;;53.45;20.92;;;7.80;99.90;;;;;;5063310;28;20028;-58
2022/09/30 07:36:28;;;;;;;45.83;19.27;;;7.90;99.90;;;;;;5060651;28;20487;-58
2022/09/30 07:38:54;;;;;;;42.35;19.15;;;7.90;99.90;;;;;;5064114;28;20040;-59
2022/09/30 07:41:25;;;;;;;40.67;19.23;;;7.90;99.90;;;;;;5061231;28;20028;-58
2022/09/30 07:43:52;;;;;;;44.25;18.98;;;8.00;99.90;;;;;;5061437;28;20111;-58
2022/09/30 07:46:24;;;;;;;55.88;21.33;;;7.90;99.90;;;;;;5060183;28;20037;-59
2022/09/30 07:48:53;;;;;;;46.00;20.10;;;7.90;99.90;;;;;;5057228;28;20395;-58
2022/09/30 07:51:34;;;;;;;45.63;20.88;;;8.00;99.90;;;;;;5057530;28;20479;-59
2022/09/30 07:54:23;;;;;;;51.45;20.42;;;8.10;99.90;;;;;;5062920;28;20409;-58
2022/09/30 07:56:50;;;;;;;51.45;21.23;;;8.10;99.90;;;;;;5060006;28;20083;-59
2022/09/30 07:59:16;;;;;;;54.40;21.80;;;8.30;99.90;;;;;;5059971;28;20032;-59
2022/09/30 08:01:41;;;;;;;56.63;21.23;;;8.30;99.90;;;;;;5061567;28;20036;-59
2022/09/30 08:04:10;;;;;;;43.13;20.33;;;8.20;99.90;;;;;;5062151;28;20054;-58
2022/09/30 08:09:09;;;;;;;46.50;21.95;;;8.30;99.90;;;;;;5100309;22;20079;-63
2022/09/30 08:11:36;;;;;;;52.53;20.85;;;8.50;99.90;;;;;;5087510;28;20109;-63
2022/09/30 08:14:02;;;;;;;40.03;20.08;;;8.40;99.90;;;;;;5087928;28;20035;-63
2022/09/30 08:16:28;;;;;;;47.10;20.35;;;8.50;99.90;;;;;;5087340;28;20573;-64
2022/09/30 08:18:55;;;;;;;45.35;20.60;;;8.70;99.90;;;;;;5070242;28;20047;-64
2022/09/30 08:21:21;;;;;;;44.45;20.20;;;8.70;99.90;;;;;;5069402;28;20033;-64
2022/09/30 08:23:46;;;;;;;42.03;20.08;;;8.70;99.90;;;;;;5067661;28;20036;-63
2022/09/30 08:26:13;;;;;;;48.05;19.00;;;8.80;99.90;;;;;;5061362;28;21205;-64
2022/09/30 08:28:39;;;;;;;50.63;21.05;;;8.80;99.90;;;;;;5058722;28;20051;-63
2022/09/30 08:31:10;;;;;;;44.75;20.23;;;8.90;99.90;;;;;;5062531;28;20494;-64
2022/09/30 08:33:37;;;;;;;47.10;21.67;;;8.80;99.90;;;;;;5059502;28;20044;-64
2022/09/30 08:36:14;;;;;;;46.92;20.27;;;8.80;99.90;;;;;;5057048;28;20033;-64
2022/09/30 08:38:40;;;;;;;40.58;20.15;;;8.90;99.90;;;;;;5058840;28;20117;-64
2022/09/30 08:41:33;;;;;;;43.08;20.85;;;8.90;99.90;;;;;;5061101;28;20055;-63
2022/09/30 08:44:29;;;;;;;41.13;19.50;;;8.90;99.90;;;;;;5059934;28;20036;-64
2022/09/30 08:47:14;;;;;;;44.33;19.98;;;9.10;99.90;;;;;;5059080;28;20486;-63
2022/09/30 08:49:53;;;;;;;50.67;21.05;;;9.10;99.90;;;;;;5063922;28;20067;-63
2022/09/30 08:52:23;;;;;;;37.08;18.73;;;9.10;99.90;;;;;;5059436;28;20299;-64
2022/09/30 08:54:52;;;;;;;38.35;19.45;;;9.20;99.90;;;;;;5064588;28;20522;-62
2022/09/30 08:57:18;;;;;;;35.03;18.33;;;9.30;99.90;;;;;;5060526;28;20033;-63
2022/09/30 08:59:48;;;;;;;34.10;17.60;;;9.40;99.90;;;;;;5060837;28;20024;-63
2022/09/30 09:02:33;;;;;;;35.85;17.90;;;9.50;99.90;;;;;;5063777;28;20490;-64
2022/09/30 09:05:05;;;;;;;31.48;15.30;;;9.60;99.90;;;;;;5058035;28;20051;-63
2022/09/30 09:07:46;;;;;;;33.05;15.77;;;9.80;99.90;;;;;;5057848;28;20549;-63
2022/09/30 09:10:24;;;;;;;28.88;14.30;;;10.00;99.90;;;;;;5058617;28;20064;-63
2022/09/30 09:13:08;;;;;;;30.75;13.35;;;10.10;99.90;;;;;;5064837;28;20004;-63
2022/09/30 09:15:47;;;;;;;24.83;13.30;;;10.30;99.90;;;;;;5067122;28;20020;-64
2022/09/30 09:18:37;;;;;;;27.25;13.52;;;10.40;99.90;;;;;;5056069;28;20093;-63
2022/09/30 09:21:38;;;;;;;25.20;14.80;;;10.60;99.90;;;;;;5055471;28;20090;-64
2022/09/30 09:24:11;;;;;;;26.25;12.82;;;10.90;99.90;;;;;;5030740;28;20029;-63
2022/09/30 09:26:37;;;;;;;24.02;12.88;;;11.00;99.90;;;;;;5060562;28;20032;-63
2022/09/30 09:29:20;;;;;;;23.20;12.07;;;11.10;99.90;;;;;;5064330;28;20032;-64
2022/09/30 09:31:47;;;;;;;23.25;11.80;;;11.30;99.90;;;;;;5067717;28;20061;-64
2022/09/30 09:34:13;;;;;;;27.13;11.70;;;11.50;99.90;;;;;;5065935;28;20025;-64
2022/09/30 09:36:51;;;;;;;21.35;11.82;;;11.60;99.90;;;;;;5066972;28;20020;-63
2022/09/30 09:39:26;;;;;;;25.48;12.90;;;11.80;99.90;;;;;;5069824;28;20025;-63
2022/09/30 09:42:29;;;;;;;22.65;11.00;;;12.00;99.90;;;;;;5068831;28;20021;-63
2022/09/30 09:45:05;;;;;;;18.33;9.82;;;12.10;99.90;;;;;;5044340;28;20094;-64
2022/09/30 09:47:31;;;;;;;18.60;9.95;;;12.30;99.90;;;;;;5069166;28;20124;-63
2022/09/30 09:50:03;;;;;;;26.30;9.77;;;12.50;99.90;;;;;;5068382;28;20078;-64
2022/09/30 09:52:55;;;;;;;20.40;9.68;;;12.50;99.90;;;;;;5067880;28;20032;-64
2022/09/30 09:55:21;;;;;;;19.77;10.75;;;12.80;99.90;;;;;;5069137;28;20094;-60
2022/09/30 09:58:02;;;;;;;17.27;9.43;;;13.00;99.90;;;;;;5069069;28;20060;-62
2022/09/30 10:03:23;;;;;;;18.77;10.35;;;13.40;99.90;;;;;;5067477;28;20103;-63
2022/09/30 10:06:12;;;;;;;14.60;8.23;;;13.60;99.90;;;;;;5068226;28;20107;-63
2022/09/30 10:08:51;;;;;;;15.82;8.02;;;13.80;99.90;;;;;;5062756;28;20029;-61
2022/09/30 10:11:20;;;;;;;14.68;8.18;;;13.90;99.90;;;;;;5064352;28;20587;-62
2022/09/30 10:13:46;;;;;;;15.57;8.13;;;14.10;99.90;;;;;;5066868;28;20055;-61
2022/09/30 10:16:26;;;;;;;17.40;8.05;;;14.00;99.90;;;;;;5069571;28;20017;-63
2022/09/30 10:18:52;;;;;;;13.32;7.90;;;14.10;99.90;;;;;;5065955;28;20024;-63
2022/09/30 10:21:20;;;;;;;19.60;7.55;;;14.20;99.90;;;;;;5070246;28;20031;-63
2022/09/30 10:23:46;;;;;;;17.17;7.20;;;14.30;99.90;;;;;;5069220;28;20040;-63
2022/09/30 10:26:26;;;;;;;17.08;7.00;;;14.60;99.90;;;;;;5067850;28;20040;-63
2022/09/30 10:28:59;;;;;;;12.32;6.63;;;14.80;99.90;;;;;;5064508;28;20124;-63
2022/09/30 10:31:37;;;;;;;12.30;5.97;;;14.80;99.90;;;;;;5069206;28;20517;-62
2022/09/30 10:34:18;;;;;;;17.75;6.28;;;15.00;99.90;;;;;;5066180;28;20031;-64
2022/09/30 10:36:44;;;;;;;12.32;6.40;;;15.10;99.90;;;;;;5062439;28;20395;-62
2022/09/30 10:39:22;;;;;;;11.40;5.78;;;15.00;99.90;;;;;;5057388;28;20029;-64
2022/09/30 10:41:49;;;;;;;12.30;5.65;;;15.20;99.90;;;;;;5067789;28;20482;-63
2022/09/30 10:44:21;;;;;;;14.25;6.35;;;15.30;99.90;;;;;;5064662;28;20043;-64
2022/09/30 10:46:49;;;;;;;16.88;6.72;;;15.20;99.90;;;;;;5065178;28;20033;-64
2022/09/30 10:49:33;;;;;;;15.65;6.47;;;15.40;99.90;;;;;;5066724;28;20433;-65
2022/09/30 10:52:00;;;;;;;22.48;7.28;;;15.50;99.90;;;;;;5065166;28;20033;-64
2022/09/30 10:54:47;;;;;;;14.82;5.68;;;15.50;99.90;;;;;;5068607;28;20595;-63
2022/09/30 10:57:19;;;;;;;10.45;4.45;;;15.70;99.90;;;;;;5064012;28;20482;-63
2022/09/30 10:59:46;;;;;;;7.82;4.28;;;15.90;99.90;;;;;;5059570;28;20542;-64
2022/09/30 11:02:22;;;;;;;12.13;3.97;;;16.20;99.90;;;;;;5068737;28;20110;-64
2022/09/30 11:05:19;;;;;;;6.93;3.75;;;16.20;99.90;;;;;;5067865;28;20044;-64
2022/09/30 11:07:45;;;;;;;10.48;3.50;;;16.30;99.90;;;;;;5060836;28;20105;-63
2022/09/30 11:10:23;;;;;;;13.70;3.83;;;16.50;99.90;;;;;;5068307;28;20115;-64
2022/09/30 11:12:53;;;;;;;5.40;3.33;;;16.80;99.90;;;;;;5069084;28;20028;-64
2022/09/30 11:15:24;;;;;;;10.07;2.90;;;16.90;99.90;;;;;;5068987;28;20103;-64
2022/09/30 11:18:10;;;;;;;10.20;3.28;;;17.10;99.90;;;;;;5064635;28;20032;-64
2022/09/30 11:20:46;;;;;;;6.25;3.60;;;17.20;99.90;;;;;;5063459;28;20490;-64
2022/09/30 11:23:33;;;;;;;4.82;2.83;;;17.30;99.90;;;;;;5068784;28;20024;-64
2022/09/30 11:26:03;;;;;;;8.60;4.03;;;17.30;99.90;;;;;;5066652;28;20074;-64
2022/09/30 11:28:40;;;;;;;8.80;4.28;;;17.60;99.90;;;;;;5068347;28;20099;-64
2022/09/30 11:31:21;;;;;;;6.82;3.47;;;17.80;99.90;;;;;;5068584;28;20386;-64
2022/09/30 11:34:08;;;;;;;4.65;3.45;;;17.90;99.90;;;;;;5064719;28;20482;-64
2022/09/30 11:36:47;;;;;;;5.13;2.83;;;18.10;99.90;;;;;;5068275;28;20073;-63
2022/09/30 11:39:39;;;;;;;13.27;3.00;;;18.10;99.90;;;;;;5068037;28;20029;-64
2022/09/30 11:42:25;;;;;;;8.23;3.05;;;18.30;99.90;;;;;;5059722;28;20013;-63
2022/09/30 11:45:16;;;;;;;7.53;2.63;;;18.00;99.90;;;;;;5065396;28;20494;-63
2022/09/30 11:48:16;;;;;;;4.72;2.45;;;17.80;99.90;;;;;;5056293;28;20068;-64
2022/09/30 11:50:44;;;;;;;11.00;3.33;;;17.10;99.90;;;;;;5060636;28;20058;-64
2022/09/30 11:53:10;;;;;;;4.75;3.50;;;17.00;99.90;;;;;;5067285;28;20029;-64
2022/09/30 11:56:00;;;;;;;9.07;4.30;;;17.00;99.90;;;;;;5062966;28;20030;-64
2022/09/30 11:58:35;;;;;;;7.70;4.03;;;16.90;99.90;;;;;;5060529;28;20028;-64
2022/09/30 12:01:21;;;;;;;6.50;4.22;;;16.50;99.90;;;;;;5057205;28;20023;-66
2022/09/30 12:03:57;;;;;;;8.25;3.53;;;16.30;99.90;;;;;;5061063;28;20077;-64
2022/09/30 12:06:38;;;;;;;7.03;2.60;;;16.40;99.90;;;;;;5059744;28;20028;-64
2022/09/30 12:09:31;;;;;;;6.82;3.20;;;16.50;99.90;;;;;;5061195;28;20032;-64
2022/09/30 12:12:01;;;;;;;4.30;2.53;;;16.90;99.90;;;;;;5062869;28;20178;-64
2022/09/30 12:14:49;;;;;;;11.75;2.47;;;17.40;99.90;;;;;;5064016;28;20036;-65
2022/09/30 12:17:36;;;;;;;6.32;2.00;;;17.40;99.90;;;;;;5065009;28;20462;-64
2022/09/30 12:20:17;;;;;;;7.97;2.30;;;17.30;99.90;;;;;;5060164;28;20047;-64
2022/09/30 12:22:45;;;;;;;6.95;1.85;;;17.20;99.90;;;;;;5056176;28;20640;-63
2022/09/30 12:25:15;;;;;;;4.13;1.73;;;17.10;99.90;;;;;;5058846;28;20410;-64
2022/09/30 12:31:19;;;;;;;7.28;1.20;;;17.60;99.90;;;;;;5056813;28;20133;-64
2022/09/30 12:34:07;;;;;;;;;;;18.40;99.90;;;;;;5062372;28;20027;-63
2022/09/30 12:36:54;;;;;;;3.72;1.15;;;18.80;99.90;;;;;;5029491;28;20671;-65
2022/09/30 12:39:33;;;;;;;5.20;1.10;;;19.20;99.90;;;;;;5058639;28;20024;-64
2022/09/30 12:42:07;;;;;;;3.03;0.88;;;19.60;99.90;;;;;;5057625;28;20037;-63
2022/09/30 12:44:56;;;;;;;;;;;19.80;99.90;;;;;;5052197;28;20029;-64
2022/09/30 12:47:47;;;;;;;2.72;0.77;;;19.90;99.90;;;;;;5051576;28;19912;-65
2022/09/30 12:50:18;;;;;;;0.85;0.73;;;20.30;99.90;;;;;;5058620;28;20045;-64
2022/09/30 12:52:44;;;;;;;2.53;0.80;;;20.30;99.90;;;;;;5061109;28;20503;-63
2022/09/30 12:55:36;;;;;;;2.88;0.70;;;20.50;99.90;;;;;;5057354;28;20040;-64
2022/09/30 12:58:03;;;;;;;2.13;0.60;;;20.40;99.90;;;;;;5057679;28;20017;-64
2022/09/30 13:00:36;;;;;;;7.53;0.80;;;20.50;99.90;;;;;;5061564;28;20021;-65
2022/09/30 13:03:14;;;;;;;3.95;0.70;;;20.80;99.90;;;;;;5064645;28;20115;-64
2022/09/30 13:05:39;;;;;;;1.75;0.60;;;21.00;99.90;;;;;;5057648;28;20371;-64
2022/09/30 13:08:05;;;;;;;2.22;0.77;;;20.90;99.90;;;;;;5057861;28;20620;-64
2022/09/30 13:10:44;;;;;;;3.30;0.90;;;20.80;99.90;;;;;;5061809;28;20064;-65
2022/09/30 13:13:10;;;;;;;2.85;0.80;;;21.00;99.70;;;;;;5061033;28;20025;-64
2022/09/30 13:15:41;;;;;;;2.67;0.88;;;21.10;99.50;;;;;;5065218;28;20078;-65
2022/09/30 13:18:18;;;;;;;2.28;1.00;;;21.30;99.90;;;;;;5063214;28;20028;-64
2022/09/30 13:21:03;;;;;;;1.92;0.63;;;21.20;99.10;;;;;;5064462;28;20090;-65
2022/09/30 13:23:35;;;;;;;2.65;0.95;;;21.10;98.60;;;;;;5058567;28;20020;-64
2022/09/30 13:26:01;;;;;;;1.73;0.82;;;20.80;99.90;;;;;;5061661;28;20065;-64